Logo Frankfurt-Egelsbach Airport
Hessische Flugplatz GmbH Egelsbach
Telefon : +49 (0)6103-9418-0
E-Mail : fly@egelsbach-airport.com
   

 

 

 

 

 

 

Aktuelle Daten

Öffnungszeiten: 0800 LT - SS+30 (max 2100 LT)

PPR: 0700 LT - 0800 LT, SS+30 - 2100 LT Tel +49 6103 9418-0

Behördlich vorgeschriebenes Briefing für NVFR-Anflüge mit HPA
für die Saison 2014/2015

» Behördlich vorgeschriebenes Briefing für NVFR-Anflüge mit HPA für die Saison 2014/2015

 

Webcam

Webcam

Wetterdaten

Beobachtung von : 26-NOV-2014 - 23:54 UTC
Sonnenaufgang : 06:55 UTC
Sonnenuntergang : 15:30 UTC
Sicht : ausgefallen
Wolkenuntergrenze : nicht feststellbar
Wind : 060 / 5 kt
Wind extrem (10 min) : 040-080 / 4-8 kt
Temperatur : 4.7° Celsius
Taupunkt : 1.1° Celsius
QNH : 1014.3 hPa
Dichtehöhe : -780 ft

Daten werden automatisch generiert. Verfügbarkeit und Richtigkeit ohne Gewähr.
Mit freundlicher Unterstützung des Deutschen Wetterdienstes

Metar

092
SADL31 EDFE 261550
METAR EDFE 261550Z 08005KT 9999 BKN020 05/01 Q1016=


Notam

E2794/14 - EGELSBACH NDB EH 386 WITHDRAWN. 01 OCT 00:00 2014 UNTIL PERM.

E3171/14 - AD HOURS OF OPS: DEC 24: 0800-1300 DEC 25: 1030-SS DEC 26-31: 0800-SS JAN 01: 1030-SS ALL TIMES UTC. OUTSIDE THESE TIMES PPR NOT POSS. 24 DEC 06:00 2014 UNTIL 01 JAN 20:00 2015.

E3151/14 - FIRE CAT 4 ONLY ON REQUEST, 48HRS PRIOR FLIGHT. 05 DEC 06:00 2014 UNTIL 11 DEC 20:00 2014.